createdAt,value
2019-04-11T00:01:09.887Z,8.10
2019-04-11T00:03:39.905Z,8.10
2019-04-11T00:06:09.830Z,8.00
2019-04-11T00:08:39.696Z,8.00
2019-04-11T00:11:09.641Z,8.00
2019-04-11T00:13:39.478Z,8.00
2019-04-11T00:16:09.598Z,8.00
2019-04-11T00:18:39.562Z,8.00
2019-04-11T00:21:09.398Z,8.00
2019-04-11T00:23:39.254Z,8.00
2019-04-11T00:26:09.379Z,8.00
2019-04-11T00:28:39.724Z,7.90
2019-04-11T00:31:09.501Z,7.90
2019-04-11T00:33:40.334Z,7.80
2019-04-11T00:36:10.389Z,7.80
2019-04-11T00:38:40.344Z,7.70
2019-04-11T00:41:10.102Z,7.80
2019-04-11T00:43:42.084Z,7.70
2019-04-11T00:46:11.938Z,7.70
2019-04-11T00:48:41.864Z,7.60
2019-04-11T00:51:11.889Z,7.60
2019-04-11T00:53:42.382Z,7.50
2019-04-11T00:56:12.402Z,7.60
2019-04-11T00:58:43.537Z,7.60
2019-04-11T01:01:13.782Z,7.50
2019-04-11T01:03:43.523Z,7.50
2019-04-11T01:06:14.088Z,7.50
2019-04-11T01:08:44.077Z,7.50
2019-04-11T01:11:14.036Z,7.40
2019-04-11T01:13:49.188Z,7.40
2019-04-11T01:16:37.207Z,7.40
2019-04-11T01:19:07.145Z,7.30
2019-04-11T01:21:36.974Z,7.30
2019-04-11T01:24:07.325Z,7.30
2019-04-11T01:26:37.226Z,7.30
2019-04-11T01:29:09.161Z,7.20
2019-04-11T01:31:39.884Z,7.20
2019-04-11T01:34:10.630Z,7.20
2019-04-11T01:36:40.454Z,7.30
2019-04-11T01:39:35.462Z,7.20
2019-04-11T01:42:05.646Z,7.20
2019-04-11T01:44:35.434Z,7.10
2019-04-11T01:47:06.955Z,7.10
2019-04-11T01:49:36.787Z,7.00
2019-04-11T01:52:06.598Z,6.90
2019-04-11T01:54:37.606Z,6.90
2019-04-11T01:57:07.577Z,6.90
2019-04-11T01:59:37.925Z,6.90
2019-04-11T02:02:45.006Z,6.90
2019-04-11T02:05:29.379Z,6.80
2019-04-11T02:08:00.871Z,6.80
2019-04-11T02:10:31.107Z,6.70
2019-04-11T02:13:01.752Z,6.60
2019-04-11T02:15:32.938Z,6.60
2019-04-11T02:18:03.351Z,6.70
2019-04-11T02:20:33.770Z,6.70
2019-04-11T02:23:28.863Z,6.60
2019-04-11T02:26:25.083Z,6.60
2019-04-11T02:28:55.240Z,6.50
2019-04-11T02:31:26.364Z,6.40
2019-04-11T02:33:57.352Z,6.40
2019-04-11T02:36:29.477Z,6.30
2019-04-11T02:39:02.192Z,6.20
2019-04-11T02:41:31.940Z,6.10
2019-04-11T02:44:03.473Z,6.20
2019-04-11T02:46:42.461Z,6.10
2019-04-11T02:49:05.999Z,6.10
2019-04-11T02:51:36.876Z,6.00
2019-04-11T02:54:07.687Z,6.00
2019-04-11T02:56:38.054Z,6.10
2019-04-11T02:59:08.987Z,6.10
2019-04-11T03:01:39.872Z,6.00
2019-04-11T03:04:10.533Z,6.00
2019-04-11T03:06:41.700Z,5.90
2019-04-11T03:09:13.327Z,5.90
2019-04-11T03:11:44.992Z,6.00
2019-04-11T03:14:16.916Z,6.00
2019-04-11T03:16:57.328Z,5.90
2019-04-11T03:19:36.105Z,6.00
2019-04-11T03:21:52.128Z,5.90
2019-04-11T03:24:24.271Z,5.80
2019-04-11T03:26:54.955Z,5.80
2019-04-11T03:29:26.676Z,5.80
2019-04-11T03:32:51.460Z,5.80
2019-04-11T03:37:23.555Z,5.70
2019-04-11T03:39:56.414Z,5.80
2019-04-11T03:42:25.047Z,5.70
2019-04-11T03:44:42.746Z,5.70
2019-04-11T03:47:20.606Z,5.60
2019-04-11T03:49:49.157Z,5.60
2019-04-11T03:52:12.194Z,5.60
2019-04-11T03:54:42.847Z,5.60
2019-04-11T03:57:13.497Z,5.60
2019-04-11T03:59:45.842Z,5.60
2019-04-11T04:02:16.952Z,5.50
2019-04-11T04:04:49.372Z,5.50
2019-04-11T04:07:21.371Z,5.50
2019-04-11T04:09:53.709Z,5.50
2019-04-11T04:12:27.302Z,5.50
2019-04-11T04:15:36.146Z,5.40
2019-04-11T04:18:10.291Z,5.40
2019-04-11T04:21:10.620Z,5.40
2019-04-11T04:23:45.377Z,5.50
2019-04-11T04:26:16.903Z,5.50
2019-04-11T04:28:47.587Z,5.50
2019-04-11T04:31:18.552Z,5.50
2019-04-11T04:33:48.858Z,5.50
2019-04-11T04:36:19.595Z,5.50
2019-04-11T04:38:49.935Z,5.40
2019-04-11T04:41:32.502Z,5.40
2019-04-11T04:43:52.777Z,5.40
2019-04-11T04:46:39.565Z,5.40
2019-04-11T04:48:56.231Z,5.40
2019-04-11T04:51:26.750Z,5.40
2019-04-11T04:53:57.967Z,5.40
2019-04-11T04:56:31.745Z,5.50
2019-04-11T04:59:00.371Z,5.50
2019-04-11T05:01:31.561Z,5.40
2019-04-11T05:04:02.222Z,5.40
2019-04-11T05:06:32.461Z,5.40
2019-04-11T05:09:02.232Z,5.40
2019-04-11T05:11:33.837Z,5.40
2019-04-11T05:14:05.092Z,5.40
2019-04-11T05:16:35.741Z,5.20
2019-04-11T05:19:06.650Z,5.20
2019-04-11T05:21:37.176Z,5.30
2019-04-11T05:24:07.554Z,5.30
2019-04-11T05:26:37.827Z,5.30
2019-04-11T05:29:07.678Z,5.30
2019-04-11T05:31:38.644Z,5.20
2019-04-11T05:34:08.500Z,5.30
2019-04-11T05:36:38.770Z,5.30
2019-04-11T05:39:10.498Z,5.30
2019-04-11T05:41:44.013Z,5.30
2019-04-11T05:44:12.556Z,5.30
2019-04-11T05:46:52.394Z,5.30
2019-04-11T05:49:29.057Z,5.30
2019-04-11T05:52:02.062Z,5.30
2019-04-11T05:54:39.974Z,5.30
2019-04-11T05:57:09.485Z,5.30
2019-04-11T05:59:41.131Z,5.30
2019-04-11T06:02:23.182Z,5.30
2019-04-11T06:04:58.902Z,5.30
2019-04-11T06:07:50.633Z,5.30
2019-04-11T06:10:24.550Z,5.30
2019-04-11T06:13:16.652Z,5.30
2019-04-11T06:15:49.255Z,5.30
2019-04-11T06:18:40.732Z,5.30
2019-04-11T06:21:22.045Z,5.30
2019-04-11T06:24:11.966Z,5.30
2019-04-11T06:26:59.594Z,5.30
2019-04-11T06:29:41.048Z,5.20
2019-04-11T06:32:28.416Z,5.20
2019-04-11T06:35:03.878Z,5.20
2019-04-11T06:37:47.885Z,5.20
2019-04-11T06:40:32.714Z,5.20
2019-04-11T06:43:18.129Z,5.20
2019-04-11T06:46:11.162Z,5.20
2019-04-11T06:49:15.085Z,5.20
2019-04-11T06:51:48.603Z,5.20
2019-04-11T06:54:34.903Z,5.30
2019-04-11T06:57:06.057Z,5.30
2019-04-11T06:59:40.594Z,5.20
2019-04-11T07:02:17.988Z,5.20
2019-04-11T07:05:04.551Z,5.20
2019-04-11T07:07:36.090Z,5.20
2019-04-11T07:10:07.594Z,5.20
2019-04-11T07:13:03.368Z,5.20
2019-04-11T07:15:54.852Z,5.20
2019-04-11T07:18:42.611Z,5.20
2019-04-11T07:21:13.142Z,5.10
2019-04-11T07:24:00.972Z,5.10
2019-04-11T07:26:39.671Z,5.10
2019-04-11T07:29:27.070Z,5.10
2019-04-11T07:32:20.166Z,5.10
2019-04-11T07:35:15.612Z,5.10
2019-04-11T07:37:51.113Z,5.10
2019-04-11T07:40:39.518Z,5.10
2019-04-11T07:43:29.235Z,5.00
2019-04-11T07:46:25.170Z,5.00
2019-04-11T07:49:03.861Z,5.00
2019-04-11T07:51:40.860Z,5.00
2019-04-11T07:54:18.321Z,4.90
2019-04-11T07:57:01.704Z,4.90
2019-04-11T07:59:41.872Z,4.90
2019-04-11T08:02:37.605Z,5.00
2019-04-11T08:05:27.996Z,5.00
2019-04-11T08:08:25.821Z,5.00
2019-04-11T08:11:13.615Z,5.00
2019-04-11T08:14:02.658Z,5.10
2019-04-11T08:17:03.777Z,5.10
2019-04-11T08:19:51.326Z,5.20
2019-04-11T08:22:35.117Z,5.30
2019-04-11T08:25:39.846Z,5.30
2019-04-11T08:28:13.677Z,5.50
2019-04-11T08:31:16.570Z,5.50
2019-04-11T08:33:47.453Z,5.60
2019-04-11T08:36:36.154Z,5.70
2019-04-11T08:39:12.999Z,5.70
2019-04-11T08:42:03.248Z,5.80
2019-04-11T08:44:36.171Z,5.80
2019-04-11T08:47:09.930Z,6.00
2019-04-11T08:49:45.878Z,5.90
2019-04-11T08:52:34.754Z,6.00
2019-04-11T08:55:24.042Z,6.10
2019-04-11T08:57:58.481Z,6.20
2019-04-11T09:00:46.278Z,6.30
2019-04-11T09:03:42.023Z,6.40
2019-04-11T09:06:18.799Z,6.40
2019-04-11T09:09:25.567Z,6.40
2019-04-11T09:11:58.383Z,6.40
2019-04-11T09:14:46.501Z,6.50
2019-04-11T09:17:53.553Z,6.50
2019-04-11T09:20:31.790Z,6.60
2019-04-11T09:23:09.440Z,6.70
2019-04-11T09:26:01.547Z,6.90
2019-04-11T09:28:44.046Z,7.00
2019-04-11T09:31:31.759Z,7.10
2019-04-11T09:34:11.406Z,7.10
2019-04-11T09:37:06.174Z,7.20
2019-04-11T09:39:57.619Z,7.20
2019-04-11T10:30:37.867Z,9.10
2019-04-11T10:33:14.918Z,9.20
2019-04-11T10:36:02.934Z,9.40
2019-04-11T10:38:33.014Z,9.50
2019-04-11T10:41:20.891Z,9.50
2019-04-11T10:44:01.306Z,9.70
2019-04-11T10:46:51.515Z,9.90
2019-04-11T10:49:50.461Z,9.70
2019-04-11T10:52:24.703Z,9.90
2019-04-11T10:55:06.582Z,10.20
2019-04-11T10:57:56.184Z,10.40
2019-04-11T11:00:31.400Z,10.50
2019-04-11T11:03:07.828Z,10.30
2019-04-11T11:05:40.188Z,10.30
2019-04-11T11:08:17.705Z,10.10
2019-04-11T11:10:48.209Z,10.00
2019-04-11T11:13:42.994Z,10.00
2019-04-11T11:16:13.937Z,10.10
2019-04-11T11:19:24.458Z,10.10
2019-04-11T11:21:33.414Z,10.00
2019-04-11T11:24:20.373Z,9.80
2019-04-11T11:26:54.514Z,10.00
2019-04-11T11:29:45.418Z,10.10
2019-04-11T11:32:35.787Z,10.10
2019-04-11T11:35:28.384Z,10.20
2019-04-11T11:38:04.020Z,10.30
2019-04-11T11:40:56.319Z,10.50
2019-04-11T11:43:29.399Z,10.60
2019-04-11T11:46:25.622Z,10.70
2019-04-11T11:49:02.283Z,10.80
2019-04-11T11:51:43.616Z,10.80
2019-04-11T11:54:35.656Z,10.90
2019-04-11T11:57:10.708Z,11.20
2019-04-11T11:59:44.950Z,11.20
2019-04-11T12:02:28.567Z,11.40
2019-04-11T12:05:18.533Z,11.70
2019-04-11T12:08:26.015Z,11.60
2019-04-11T12:11:01.781Z,10.90
2019-04-11T12:13:57.806Z,11.00
2019-04-11T12:16:36.261Z,10.50
2019-04-11T12:19:24.988Z,10.70
2019-04-11T12:21:56.459Z,10.80
2019-04-11T12:24:48.279Z,10.90
2019-04-11T12:27:37.192Z,10.90
2019-04-11T12:30:41.993Z,10.90
2019-04-11T12:33:29.722Z,10.90
2019-04-11T12:36:08.235Z,10.70
2019-04-11T12:38:55.486Z,10.60
2019-04-11T12:41:53.278Z,10.50
2019-04-11T12:44:51.194Z,10.60
2019-04-11T12:47:26.019Z,10.30
2019-04-11T12:50:17.688Z,10.10
2019-04-11T12:52:57.717Z,9.90
2019-04-11T12:55:36.503Z,10.10
2019-04-11T12:58:24.362Z,10.00
2019-04-11T13:01:13.426Z,10.00
2019-04-11T13:04:20.043Z,9.90
2019-04-11T13:07:21.244Z,10.00
2019-04-11T13:10:09.905Z,10.20
2019-04-11T13:12:57.661Z,10.20
2019-04-11T13:15:34.389Z,10.20
2019-04-11T13:18:21.563Z,10.00
2019-04-11T13:20:55.759Z,10.00
2019-04-11T13:23:40.955Z,10.10
2019-04-11T13:26:47.713Z,10.20
2019-04-11T13:29:28.433Z,10.10
2019-04-11T13:32:15.725Z,10.10
2019-04-11T13:34:46.565Z,10.10
2019-04-11T13:37:33.674Z,10.20
2019-04-11T13:40:25.529Z,10.10
2019-04-11T13:43:12.692Z,10.10
2019-04-11T13:45:54.178Z,10.10
2019-04-11T13:49:01.087Z,10.10
2019-04-11T13:52:01.619Z,10.20
2019-04-11T13:54:52.959Z,10.10
2019-04-11T13:57:45.414Z,10.30
2019-04-11T14:00:50.245Z,10.30
2019-04-11T14:03:37.306Z,10.40
2019-04-11T14:06:19.187Z,10.00
2019-04-11T14:09:11.084Z,10.10
2019-04-11T14:11:51.566Z,10.10
2019-04-11T14:14:34.862Z,10.10
2019-04-11T14:17:21.748Z,10.10
2019-04-11T14:20:08.801Z,10.00
2019-04-11T14:22:58.889Z,10.00
2019-04-11T14:26:05.800Z,10.10
2019-04-11T14:28:58.735Z,10.10
2019-04-11T14:31:50.910Z,10.10
2019-04-11T14:34:34.663Z,10.20
2019-04-11T14:37:21.961Z,10.10
2019-04-11T14:39:55.519Z,9.90
2019-04-11T14:42:47.145Z,9.80
2019-04-11T14:45:36.739Z,9.90
2019-04-11T14:48:15.011Z,9.80
2019-04-11T14:51:23.784Z,9.80
2019-04-11T14:54:11.930Z,9.90
2019-04-11T14:57:00.029Z,10.00
2019-04-11T14:59:37.118Z,10.20
2019-04-11T15:02:20.320Z,10.20
2019-04-11T15:05:06.186Z,10.10
2019-04-11T15:07:37.457Z,10.10
2019-04-11T15:10:38.940Z,10.10
2019-04-11T15:13:10.098Z,10.10
2019-04-11T15:15:57.859Z,10.10
2019-04-11T15:18:28.330Z,10.00
2019-04-11T15:21:17.332Z,10.20
2019-04-11T15:23:51.989Z,10.10
2019-04-11T15:26:46.690Z,10.10
2019-04-11T15:29:41.130Z,10.10
2019-04-11T15:32:47.758Z,9.70
2019-04-11T15:35:17.582Z,9.70
2019-04-11T15:38:09.399Z,9.70
2019-04-11T15:40:41.889Z,9.80
2019-04-11T15:43:30.528Z,9.70
2019-04-11T15:46:04.189Z,9.80
2019-04-11T15:48:55.590Z,9.70
2019-04-11T15:51:59.146Z,9.70
2019-04-11T15:54:48.522Z,9.50
2019-04-11T15:57:43.808Z,9.60
2019-04-11T16:00:43.926Z,9.60
2019-04-11T16:03:17.625Z,9.50
2019-04-11T16:06:04.717Z,9.40
2019-04-11T16:08:43.284Z,9.40
2019-04-11T16:11:30.467Z,9.30
2019-04-11T16:14:25.175Z,9.40
2019-04-11T16:17:17.531Z,9.40
2019-04-11T16:19:58.489Z,9.40
2019-04-11T16:22:46.904Z,9.40
2019-04-11T16:25:18.569Z,9.20
2019-04-11T16:28:08.111Z,9.20
2019-04-11T16:30:41.314Z,9.10
2019-04-11T16:33:20.789Z,9.10
2019-04-11T16:35:57.877Z,9.10
2019-04-11T16:38:28.755Z,9.10
2019-04-11T16:41:16.508Z,9.00
2019-04-11T16:43:49.614Z,9.10
2019-04-11T16:46:50.068Z,9.10
2019-04-11T16:49:19.892Z,9.10
2019-04-11T16:51:50.355Z,9.10
2019-04-11T16:54:20.534Z,9.10
2019-04-11T16:56:50.341Z,9.10
2019-04-11T16:59:20.877Z,9.10
2019-04-11T17:01:53.812Z,9.10
2019-04-11T17:04:25.820Z,9.10
2019-04-11T17:07:26.153Z,9.10
2019-04-11T17:09:58.011Z,9.00
2019-04-11T17:12:27.829Z,9.00
2019-04-11T17:14:57.653Z,8.90
2019-04-11T17:17:30.805Z,8.80
2019-04-11T17:19:59.340Z,8.80
2019-04-11T17:22:29.152Z,8.80
2019-04-11T17:24:59.406Z,8.80
2019-04-11T17:27:29.203Z,8.80
2019-04-11T17:29:59.479Z,8.80
2019-04-11T17:32:29.628Z,8.80
2019-04-11T17:35:01.899Z,8.80
2019-04-11T17:37:33.225Z,8.80
2019-04-11T17:40:06.637Z,8.80
2019-04-11T17:42:36.833Z,8.70
2019-04-11T17:45:06.221Z,8.70
2019-04-11T17:47:36.496Z,8.70
2019-04-11T17:50:07.858Z,8.60
2019-04-11T17:52:38.094Z,8.60
2019-04-11T17:55:08.806Z,8.60
2019-04-11T17:57:41.914Z,8.60
2019-04-11T18:00:19.236Z,8.50
2019-04-11T18:02:49.699Z,8.50
2019-04-11T18:05:22.390Z,8.50
2019-04-11T18:07:53.627Z,8.50
2019-04-11T18:10:25.962Z,8.50
2019-04-11T18:13:00.335Z,8.40
2019-04-11T18:15:31.183Z,8.40
2019-04-11T18:18:03.191Z,8.40
2019-04-11T18:20:36.987Z,8.40
2019-04-11T18:23:09.315Z,8.30
2019-04-11T18:25:44.143Z,8.30
2019-04-11T18:28:15.739Z,8.30
2019-04-11T18:30:47.261Z,8.30
2019-04-11T18:33:19.517Z,8.20
2019-04-11T18:35:54.719Z,8.20
2019-04-11T18:38:26.268Z,8.20
2019-04-11T18:40:57.641Z,8.20
2019-04-11T18:43:28.279Z,8.10
2019-04-11T18:46:00.927Z,8.10
2019-04-11T18:48:32.333Z,8.10
2019-04-11T18:51:03.928Z,8.10
2019-04-11T18:53:34.571Z,8.00
2019-04-11T18:56:05.626Z,8.00
2019-04-11T18:58:36.998Z,8.00
2019-04-11T19:01:09.818Z,7.90
2019-04-11T19:03:42.680Z,7.90
2019-04-11T19:06:14.148Z,7.90
2019-04-11T19:08:48.862Z,7.80
2019-04-11T19:11:20.263Z,7.70
2019-04-11T19:13:50.918Z,7.70
2019-04-11T19:16:21.408Z,7.70
2019-04-11T19:18:52.198Z,7.70
2019-04-11T19:21:23.012Z,7.60
2019-04-11T19:23:53.482Z,7.70
2019-04-11T19:26:26.335Z,7.60
2019-04-11T19:29:00.180Z,7.60
2019-04-11T19:31:31.950Z,7.60
2019-04-11T19:34:04.932Z,7.50
2019-04-11T19:36:37.254Z,7.50
2019-04-11T19:39:13.578Z,7.40
2019-04-11T19:41:47.798Z,7.40
2019-04-11T19:44:16.813Z,7.40
2019-04-11T19:46:51.061Z,7.30
2019-04-11T19:49:22.122Z,7.20
2019-04-11T19:51:53.189Z,7.10
2019-04-11T19:54:25.051Z,7.10
2019-04-11T19:57:06.420Z,7.10
2019-04-11T19:59:36.278Z,7.10
2019-04-11T20:02:06.793Z,7.00
2019-04-11T20:04:36.701Z,7.00
2019-04-11T20:07:06.890Z,6.90
2019-04-11T20:09:37.002Z,6.90
2019-04-11T20:12:07.207Z,6.80
2019-04-11T20:14:37.299Z,6.80
2019-04-11T20:17:09.135Z,6.80
2019-04-11T20:19:39.302Z,6.80
2019-04-11T20:22:09.590Z,6.80
2019-04-11T20:24:39.742Z,6.80
2019-04-11T20:27:10.087Z,6.80
2019-04-11T20:29:40.845Z,6.70
2019-04-11T20:32:11.961Z,6.70
2019-04-11T20:34:42.789Z,6.70
2019-04-11T20:37:13.794Z,6.60
2019-04-11T20:39:47.290Z,6.60
2019-04-11T20:42:17.309Z,6.60
2019-04-11T20:44:47.937Z,6.60
2019-04-11T20:47:18.208Z,6.60
2019-04-11T20:49:51.393Z,6.60
2019-04-11T20:52:22.816Z,6.60
2019-04-11T20:54:53.636Z,6.60
2019-04-11T20:57:26.253Z,6.60
2019-04-11T20:59:58.642Z,6.50
2019-04-11T21:02:29.251Z,6.50
2019-04-11T21:05:01.991Z,6.50
2019-04-11T21:07:34.048Z,6.40
2019-04-11T21:10:05.944Z,6.30
2019-04-11T21:12:37.979Z,6.30
2019-04-11T21:15:09.260Z,6.40
2019-04-11T21:17:40.525Z,6.30
2019-04-11T21:20:11.212Z,6.30
2019-04-11T21:22:43.697Z,6.30
2019-04-11T21:25:15.602Z,6.30
2019-04-11T21:27:47.144Z,6.30
2019-04-11T21:30:18.667Z,6.30
2019-04-11T21:32:51.870Z,6.30
2019-04-11T21:35:22.388Z,6.40
2019-04-11T21:37:52.661Z,6.30
2019-04-11T21:40:22.955Z,6.30
2019-04-11T21:42:52.771Z,6.30
2019-04-11T21:45:23.201Z,6.30
2019-04-11T21:47:55.697Z,6.30
2019-04-11T21:50:25.753Z,6.40
2019-04-11T21:52:56.134Z,6.30
2019-04-11T21:55:26.462Z,6.20
2019-04-11T21:57:56.554Z,6.20
2019-04-11T22:00:39.003Z,6.10
2019-04-11T22:03:10.314Z,6.20
2019-04-11T22:05:40.983Z,6.20
2019-04-11T22:08:11.202Z,6.10
2019-04-11T22:10:41.100Z,6.10
2019-04-11T22:13:10.913Z,6.10
2019-04-11T22:15:42.422Z,6.10
2019-04-11T22:18:15.777Z,6.10
2019-04-11T22:20:45.210Z,6.00
2019-04-11T22:23:16.162Z,6.10
2019-04-11T22:25:46.045Z,6.10
2019-04-11T22:28:15.882Z,6.10
2019-04-11T22:30:46.498Z,6.10
2019-04-11T22:33:35.225Z,6.10
2019-04-11T22:36:05.500Z,6.10
2019-04-11T22:38:35.731Z,6.10
2019-04-11T22:41:05.605Z,6.10
2019-04-11T22:43:37.918Z,6.00
2019-04-11T22:46:08.011Z,6.00
2019-04-11T22:48:38.994Z,6.00
2019-04-11T22:51:11.242Z,6.00
2019-04-11T22:53:43.193Z,6.00
2019-04-11T22:56:12.806Z,6.00
2019-04-11T22:58:43.704Z,6.00
2019-04-11T23:01:16.582Z,6.10
2019-04-11T23:03:50.003Z,6.10
2019-04-11T23:06:20.230Z,6.10
2019-04-11T23:08:50.055Z,6.00
2019-04-11T23:11:19.813Z,6.00
2019-04-11T23:13:50.776Z,6.00
2019-04-11T23:16:20.636Z,5.90
2019-04-11T23:18:51.963Z,5.90
2019-04-11T23:21:21.874Z,5.90
2019-04-11T23:23:51.701Z,5.90
2019-04-11T23:26:22.226Z,5.90
2019-04-11T23:28:52.083Z,5.90
2019-04-11T23:31:22.298Z,5.90
2019-04-11T23:33:52.678Z,5.90
2019-04-11T23:36:22.965Z,5.90
2019-04-11T23:38:53.775Z,5.80
2019-04-11T23:41:24.137Z,5.80
2019-04-11T23:43:54.421Z,5.80
2019-04-11T23:46:24.237Z,5.80
2019-04-11T23:48:55.496Z,5.60
2019-04-11T23:51:26.448Z,5.60
2019-04-11T23:53:59.701Z,5.60
2019-04-11T23:56:30.750Z,5.60
2019-04-11T23:59:02.133Z,5.60
